sensor_id;sensor_type;location;lat;lon;timestamp;temperature;humidity
19680;DHT22;9989;48.962;9.182;2023-03-18T00:00:35;11.70;99.90
19680;DHT22;9989;48.962;9.182;2023-03-18T00:03:01;11.70;99.90
19680;DHT22;9989;48.962;9.182;2023-03-18T00:05:27;11.70;99.90
19680;DHT22;9989;48.962;9.182;2023-03-18T00:07:53;11.70;99.90
19680;DHT22;9989;48.962;9.182;2023-03-18T00:10:18;11.60;99.90
19680;DHT22;9989;48.962;9.182;2023-03-18T00:12:44;11.60;99.90
19680;DHT22;9989;48.962;9.182;2023-03-18T00:15:12;11.60;99.90
19680;DHT22;9989;48.962;9.182;2023-03-18T00:17:38;11.60;99.90
19680;DHT22;9989;48.962;9.182;2023-03-18T00:20:06;11.60;99.90
19680;DHT22;9989;48.962;9.182;2023-03-18T00:22:33;11.60;99.90
19680;DHT22;9989;48.962;9.182;2023-03-18T00:24:58;11.60;99.90
19680;DHT22;9989;48.962;9.182;2023-03-18T00:27:24;11.60;99.90
19680;DHT22;9989;48.962;9.182;2023-03-18T00:29:49;11.60;99.90
19680;DHT22;9989;48.962;9.182;2023-03-18T00:32:16;11.50;99.90
19680;DHT22;9989;48.962;9.182;2023-03-18T00:34:41;11.50;99.90
19680;DHT22;9989;48.962;9.182;2023-03-18T00:37:07;11.50;99.90
19680;DHT22;9989;48.962;9.182;2023-03-18T00:39:33;11.40;99.90
19680;DHT22;9989;48.962;9.182;2023-03-18T00:41:59;11.40;99.90
19680;DHT22;9989;48.962;9.182;2023-03-18T00:44:32;11.30;99.90
19680;DHT22;9989;48.962;9.182;2023-03-18T00:46:57;11.30;99.90
19680;DHT22;9989;48.962;9.182;2023-03-18T00:49:23;11.30;99.90
19680;DHT22;9989;48.962;9.182;2023-03-18T00:51:52;11.20;99.90
19680;DHT22;9989;48.962;9.182;2023-03-18T00:54:17;11.20;99.90
19680;DHT22;9989;48.962;9.182;2023-03-18T00:56:45;11.10;99.90
19680;DHT22;9989;48.962;9.182;2023-03-18T00:59:11;11.10;99.90
19680;DHT22;9989;48.962;9.182;2023-03-18T01:01:37;11.10;99.90
19680;DHT22;9989;48.962;9.182;2023-03-18T01:04:03;11.00;99.90
19680;DHT22;9989;48.962;9.182;2023-03-18T01:06:34;11.00;99.90
19680;DHT22;9989;48.962;9.182;2023-03-18T01:09:02;11.00;99.90
19680;DHT22;9989;48.962;9.182;2023-03-18T01:11:29;11.00;99.90
19680;DHT22;9989;48.962;9.182;2023-03-18T01:13:55;11.00;99.90
19680;DHT22;9989;48.962;9.182;2023-03-18T01:16:22;10.90;99.90
19680;DHT22;9989;48.962;9.182;2023-03-18T01:18:47;11.00;99.90
19680;DHT22;9989;48.962;9.182;2023-03-18T01:21:13;11.00;99.90
19680;DHT22;9989;48.962;9.182;2023-03-18T01:23:39;11.00;99.90
19680;DHT22;9989;48.962;9.182;2023-03-18T01:26:05;11.00;99.90
19680;DHT22;9989;48.962;9.182;2023-03-18T01:28:31;11.00;99.90
19680;DHT22;9989;48.962;9.182;2023-03-18T01:30:57;11.00;99.90
19680;DHT22;9989;48.962;9.182;2023-03-18T01:33:24;11.00;99.90
19680;DHT22;9989;48.962;9.182;2023-03-18T01:35:54;10.90;99.90
19680;DHT22;9989;48.962;9.182;2023-03-18T01:38:20;10.90;99.90
19680;DHT22;9989;48.962;9.182;2023-03-18T01:40:46;10.90;99.90
19680;DHT22;9989;48.962;9.182;2023-03-18T01:43:18;10.80;99.90
19680;DHT22;9989;48.962;9.182;2023-03-18T01:45:50;10.80;99.90
19680;DHT22;9989;48.962;9.182;2023-03-18T01:48:18;10.80;99.90
19680;DHT22;9989;48.962;9.182;2023-03-18T01:50:48;10.80;99.90
19680;DHT22;9989;48.962;9.182;2023-03-18T01:53:17;10.80;99.90
19680;DHT22;9989;48.962;9.182;2023-03-18T01:55:44;10.80;99.90
19680;DHT22;9989;48.962;9.182;2023-03-18T01:58:24;10.80;99.90
19680;DHT22;9989;48.962;9.182;2023-03-18T02:01:02;10.80;99.90
19680;DHT22;9989;48.962;9.182;2023-03-18T02:03:29;10.80;99.90
19680;DHT22;9989;48.962;9.182;2023-03-18T02:05:55;10.80;99.90
19680;DHT22;9989;48.962;9.182;2023-03-18T02:08:21;10.90;99.90
19680;DHT22;9989;48.962;9.182;2023-03-18T02:10:48;10.90;99.90
19680;DHT22;9989;48.962;9.182;2023-03-18T02:13:15;10.90;99.90
19680;DHT22;9989;48.962;9.182;2023-03-18T02:16:01;10.90;99.90
19680;DHT22;9989;48.962;9.182;2023-03-18T02:18:33;10.90;99.90
19680;DHT22;9989;48.962;9.182;2023-03-18T02:29:28;10.90;99.90
19680;DHT22;9989;48.962;9.182;2023-03-18T02:31:56;10.80;99.90
19680;DHT22;9989;48.962;9.182;2023-03-18T02:34:26;10.80;99.90
19680;DHT22;9989;48.962;9.182;2023-03-18T02:36:52;10.80;99.90
19680;DHT22;9989;48.962;9.182;2023-03-18T02:39:18;10.70;99.90
19680;DHT22;9989;48.962;9.182;2023-03-18T02:41:44;10.60;99.90
19680;DHT22;9989;48.962;9.182;2023-03-18T02:44:11;10.60;99.90
19680;DHT22;9989;48.962;9.182;2023-03-18T02:49:06;10.50;99.90
19680;DHT22;9989;48.962;9.182;2023-03-18T02:51:34;10.40;99.90
19680;DHT22;9989;48.962;9.182;2023-03-18T02:54:04;10.40;99.90
19680;DHT22;9989;48.962;9.182;2023-03-18T02:56:30;10.40;99.90
19680;DHT22;9989;48.962;9.182;2023-03-18T02:58:56;10.30;99.90
19680;DHT22;9989;48.962;9.182;2023-03-18T03:01:22;10.30;99.90
19680;DHT22;9989;48.962;9.182;2023-03-18T03:03:48;10.30;99.90
19680;DHT22;9989;48.962;9.182;2023-03-18T03:06:13;10.20;99.90
19680;DHT22;9989;48.962;9.182;2023-03-18T03:08:39;10.20;99.90
19680;DHT22;9989;48.962;9.182;2023-03-18T03:11:06;10.20;99.90
19680;DHT22;9989;48.962;9.182;2023-03-18T03:13:33;10.10;99.90
19680;DHT22;9989;48.962;9.182;2023-03-18T03:15:58;10.10;99.90
19680;DHT22;9989;48.962;9.182;2023-03-18T03:18:24;10.10;99.90
19680;DHT22;9989;48.962;9.182;2023-03-18T03:20:50;10.10;99.90
19680;DHT22;9989;48.962;9.182;2023-03-18T03:23:16;10.10;99.90
19680;DHT22;9989;48.962;9.182;2023-03-18T03:25:43;10.00;99.90
19680;DHT22;9989;48.962;9.182;2023-03-18T03:28:12;10.00;99.90
19680;DHT22;9989;48.962;9.182;2023-03-18T03:30:38;10.00;99.90
19680;DHT22;9989;48.962;9.182;2023-03-18T03:33:05;10.00;99.90
19680;DHT22;9989;48.962;9.182;2023-03-18T03:35:31;9.90;99.90
19680;DHT22;9989;48.962;9.182;2023-03-18T03:37:56;9.90;99.90
19680;DHT22;9989;48.962;9.182;2023-03-18T03:40:22;9.90;99.90
19680;DHT22;9989;48.962;9.182;2023-03-18T03:42:48;9.90;99.90
19680;DHT22;9989;48.962;9.182;2023-03-18T03:45:15;9.90;99.90
19680;DHT22;9989;48.962;9.182;2023-03-18T03:47:42;9.80;99.90
19680;DHT22;9989;48.962;9.182;2023-03-18T03:50:10;9.90;99.90
19680;DHT22;9989;48.962;9.182;2023-03-18T03:52:36;9.90;99.90
19680;DHT22;9989;48.962;9.182;2023-03-18T03:55:04;9.90;99.90
19680;DHT22;9989;48.962;9.182;2023-03-18T03:57:29;9.90;99.90
19680;DHT22;9989;48.962;9.182;2023-03-18T03:59:55;9.90;99.90
19680;DHT22;9989;48.962;9.182;2023-03-18T04:02:21;9.80;99.90
19680;DHT22;9989;48.962;9.182;2023-03-18T04:04:49;9.80;99.90
19680;DHT22;9989;48.962;9.182;2023-03-18T04:07:15;9.80;99.90
19680;DHT22;9989;48.962;9.182;2023-03-18T04:09:41;9.80;99.90
19680;DHT22;9989;48.962;9.182;2023-03-18T04:12:07;9.80;99.90
19680;DHT22;9989;48.962;9.182;2023-03-18T04:14:34;9.70;99.90
19680;DHT22;9989;48.962;9.182;2023-03-18T04:16:59;9.70;99.90
19680;DHT22;9989;48.962;9.182;2023-03-18T04:19:26;9.70;99.90
19680;DHT22;9989;48.962;9.182;2023-03-18T04:21:53;9.70;99.90
19680;DHT22;9989;48.962;9.182;2023-03-18T04:24:20;9.70;99.90
19680;DHT22;9989;48.962;9.182;2023-03-18T04:26:47;9.70;99.90
19680;DHT22;9989;48.962;9.182;2023-03-18T04:29:13;9.70;99.90
19680;DHT22;9989;48.962;9.182;2023-03-18T04:31:39;9.70;99.90
19680;DHT22;9989;48.962;9.182;2023-03-18T04:34:05;9.70;99.90
19680;DHT22;9989;48.962;9.182;2023-03-18T04:36:34;9.70;99.90
19680;DHT22;9989;48.962;9.182;2023-03-18T04:38:59;9.70;99.90
19680;DHT22;9989;48.962;9.182;2023-03-18T04:41:25;9.60;99.90
19680;DHT22;9989;48.962;9.182;2023-03-18T04:43:50;9.60;99.90
19680;DHT22;9989;48.962;9.182;2023-03-18T04:46:16;9.60;99.90
19680;DHT22;9989;48.962;9.182;2023-03-18T04:48:42;9.60;99.90
19680;DHT22;9989;48.962;9.182;2023-03-18T04:51:08;9.60;99.90
19680;DHT22;9989;48.962;9.182;2023-03-18T04:53:34;9.60;99.90
19680;DHT22;9989;48.962;9.182;2023-03-18T04:56:00;9.50;99.90
19680;DHT22;9989;48.962;9.182;2023-03-18T04:58:26;9.50;99.90
19680;DHT22;9989;48.962;9.182;2023-03-18T05:00:52;9.40;99.90
19680;DHT22;9989;48.962;9.182;2023-03-18T05:03:18;9.40;99.90
19680;DHT22;9989;48.962;9.182;2023-03-18T05:05:44;9.30;99.90
19680;DHT22;9989;48.962;9.182;2023-03-18T05:08:09;9.30;99.90
19680;DHT22;9989;48.962;9.182;2023-03-18T05:10:35;9.20;99.90
19680;DHT22;9989;48.962;9.182;2023-03-18T05:13:01;9.10;99.90
19680;DHT22;9989;48.962;9.182;2023-03-18T05:15:28;9.10;99.90
19680;DHT22;9989;48.962;9.182;2023-03-18T05:17:53;9.10;99.90
19680;DHT22;9989;48.962;9.182;2023-03-18T05:20:19;9.00;99.90
19680;DHT22;9989;48.962;9.182;2023-03-18T05:22:44;9.00;99.90
19680;DHT22;9989;48.962;9.182;2023-03-18T05:25:10;9.00;99.90
19680;DHT22;9989;48.962;9.182;2023-03-18T05:27:37;9.00;99.90
19680;DHT22;9989;48.962;9.182;2023-03-18T05:30:04;9.00;99.90
19680;DHT22;9989;48.962;9.182;2023-03-18T05:32:30;9.00;99.90
19680;DHT22;9989;48.962;9.182;2023-03-18T05:34:56;8.90;99.90
19680;DHT22;9989;48.962;9.182;2023-03-18T05:37:22;8.90;99.90
19680;DHT22;9989;48.962;9.182;2023-03-18T05:39:48;8.90;99.90
19680;DHT22;9989;48.962;9.182;2023-03-18T05:42:14;8.80;99.90
19680;DHT22;9989;48.962;9.182;2023-03-18T05:44:40;8.80;99.90
19680;DHT22;9989;48.962;9.182;2023-03-18T05:47:07;8.80;99.90
19680;DHT22;9989;48.962;9.182;2023-03-18T05:49:32;8.80;99.90
19680;DHT22;9989;48.962;9.182;2023-03-18T05:51:58;8.80;99.90
19680;DHT22;9989;48.962;9.182;2023-03-18T05:54:24;8.80;99.90
19680;DHT22;9989;48.962;9.182;2023-03-18T05:56:49;8.80;99.90
19680;DHT22;9989;48.962;9.182;2023-03-18T05:59:17;8.80;99.90
19680;DHT22;9989;48.962;9.182;2023-03-18T06:01:43;8.70;99.90
19680;DHT22;9989;48.962;9.182;2023-03-18T06:04:10;8.70;99.90
19680;DHT22;9989;48.962;9.182;2023-03-18T06:06:36;8.70;99.90
19680;DHT22;9989;48.962;9.182;2023-03-18T06:09:06;8.70;99.90
19680;DHT22;9989;48.962;9.182;2023-03-18T06:11:32;8.70;99.90
19680;DHT22;9989;48.962;9.182;2023-03-18T06:13:57;8.70;99.90
19680;DHT22;9989;48.962;9.182;2023-03-18T06:16:24;8.70;99.90
19680;DHT22;9989;48.962;9.182;2023-03-18T06:18:50;8.70;99.90
19680;DHT22;9989;48.962;9.182;2023-03-18T06:21:15;8.70;99.90
19680;DHT22;9989;48.962;9.182;2023-03-18T06:23:41;8.70;99.90
19680;DHT22;9989;48.962;9.182;2023-03-18T06:26:07;8.70;99.90
19680;DHT22;9989;48.962;9.182;2023-03-18T06:28:33;8.70;99.90
19680;DHT22;9989;48.962;9.182;2023-03-18T06:30:59;8.80;99.90
19680;DHT22;9989;48.962;9.182;2023-03-18T06:33:26;8.80;99.90
19680;DHT22;9989;48.962;9.182;2023-03-18T06:35:52;8.90;99.90
19680;DHT22;9989;48.962;9.182;2023-03-18T06:38:19;9.00;99.90
19680;DHT22;9989;48.962;9.182;2023-03-18T06:40:45;9.00;99.90
19680;DHT22;9989;48.962;9.182;2023-03-18T06:43:12;9.10;99.90
19680;DHT22;9989;48.962;9.182;2023-03-18T06:45:38;9.20;99.90
19680;DHT22;9989;48.962;9.182;2023-03-18T06:48:05;9.20;99.90
19680;DHT22;9989;48.962;9.182;2023-03-18T06:50:31;9.30;99.90
19680;DHT22;9989;48.962;9.182;2023-03-18T06:52:57;9.40;99.90
19680;DHT22;9989;48.962;9.182;2023-03-18T06:55:24;9.50;99.90
19680;DHT22;9989;48.962;9.182;2023-03-18T06:57:49;9.50;99.90
19680;DHT22;9989;48.962;9.182;2023-03-18T07:00:16;9.60;99.90
19680;DHT22;9989;48.962;9.182;2023-03-18T07:02:41;9.70;99.90
19680;DHT22;9989;48.962;9.182;2023-03-18T07:05:08;9.80;99.90
19680;DHT22;9989;48.962;9.182;2023-03-18T07:07:34;9.80;99.90
19680;DHT22;9989;48.962;9.182;2023-03-18T07:10:03;9.90;99.90
19680;DHT22;9989;48.962;9.182;2023-03-18T07:12:29;10.10;99.90
19680;DHT22;9989;48.962;9.182;2023-03-18T07:14:55;10.20;99.90
19680;DHT22;9989;48.962;9.182;2023-03-18T07:17:21;10.30;99.90
19680;DHT22;9989;48.962;9.182;2023-03-18T07:19:47;10.40;99.90
19680;DHT22;9989;48.962;9.182;2023-03-18T07:22:13;10.50;99.90
19680;DHT22;9989;48.962;9.182;2023-03-18T07:24:42;10.70;99.90
19680;DHT22;9989;48.962;9.182;2023-03-18T07:27:08;10.80;99.90
19680;DHT22;9989;48.962;9.182;2023-03-18T07:29:34;10.90;99.90
19680;DHT22;9989;48.962;9.182;2023-03-18T07:32:00;11.00;99.90
19680;DHT22;9989;48.962;9.182;2023-03-18T07:34:27;11.20;99.90
19680;DHT22;9989;48.962;9.182;2023-03-18T07:36:52;11.30;99.90
19680;DHT22;9989;48.962;9.182;2023-03-18T07:39:18;11.40;99.90
19680;DHT22;9989;48.962;9.182;2023-03-18T07:41:44;11.50;99.90
19680;DHT22;9989;48.962;9.182;2023-03-18T07:44:09;11.70;99.90
19680;DHT22;9989;48.962;9.182;2023-03-18T07:46:35;11.80;99.90
19680;DHT22;9989;48.962;9.182;2023-03-18T07:49:05;12.00;99.90
19680;DHT22;9989;48.962;9.182;2023-03-18T07:51:31;12.20;99.90
19680;DHT22;9989;48.962;9.182;2023-03-18T07:53:57;12.30;99.90
19680;DHT22;9989;48.962;9.182;2023-03-18T07:56:23;12.50;99.90
19680;DHT22;9989;48.962;9.182;2023-03-18T07:58:49;12.60;99.90
19680;DHT22;9989;48.962;9.182;2023-03-18T08:01:15;12.80;99.90
19680;DHT22;9989;48.962;9.182;2023-03-18T08:03:43;12.90;99.90
19680;DHT22;9989;48.962;9.182;2023-03-18T08:06:09;13.10;99.90
19680;DHT22;9989;48.962;9.182;2023-03-18T08:08:36;13.20;99.90
19680;DHT22;9989;48.962;9.182;2023-03-18T08:11:01;13.40;99.90
19680;DHT22;9989;48.962;9.182;2023-03-18T08:13:27;13.60;99.90
19680;DHT22;9989;48.962;9.182;2023-03-18T08:15:53;13.80;99.90
19680;DHT22;9989;48.962;9.182;2023-03-18T08:18:21;14.00;99.90
19680;DHT22;9989;48.962;9.182;2023-03-18T08:20:47;14.10;99.90
19680;DHT22;9989;48.962;9.182;2023-03-18T08:23:13;14.20;99.90
19680;DHT22;9989;48.962;9.182;2023-03-18T08:25:39;14.40;99.90
19680;DHT22;9989;48.962;9.182;2023-03-18T08:28:05;14.60;99.90
19680;DHT22;9989;48.962;9.182;2023-03-18T08:30:32;14.70;99.90
19680;DHT22;9989;48.962;9.182;2023-03-18T08:32:59;14.90;99.90
19680;DHT22;9989;48.962;9.182;2023-03-18T08:35:24;15.20;99.90
19680;DHT22;9989;48.962;9.182;2023-03-18T08:37:50;15.40;99.90
19680;DHT22;9989;48.962;9.182;2023-03-18T08:40:16;15.70;99.90
19680;DHT22;9989;48.962;9.182;2023-03-18T08:42:42;15.90;99.90
19680;DHT22;9989;48.962;9.182;2023-03-18T08:45:08;16.20;99.90
19680;DHT22;9989;48.962;9.182;2023-03-18T08:47:34;16.40;99.90
19680;DHT22;9989;48.962;9.182;2023-03-18T08:50:00;16.70;99.90
19680;DHT22;9989;48.962;9.182;2023-03-18T08:52:25;16.90;99.90
19680;DHT22;9989;48.962;9.182;2023-03-18T08:54:51;17.10;99.90
19680;DHT22;9989;48.962;9.182;2023-03-18T09:02:34;17.80;96.20
19680;DHT22;9989;48.962;9.182;2023-03-18T09:04:59;18.00;95.20
19680;DHT22;9989;48.962;9.182;2023-03-18T09:07:25;18.20;95.10
19680;DHT22;9989;48.962;9.182;2023-03-18T09:09:51;18.40;94.20
19680;DHT22;9989;48.962;9.182;2023-03-18T09:12:16;18.70;94.00
19680;DHT22;9989;48.962;9.182;2023-03-18T09:14:42;18.90;93.50
19680;DHT22;9989;48.962;9.182;2023-03-18T09:17:08;19.20;93.00
19680;DHT22;9989;48.962;9.182;2023-03-18T09:19:34;19.40;92.70
19680;DHT22;9989;48.962;9.182;2023-03-18T09:22:01;19.70;91.60
19680;DHT22;9989;48.962;9.182;2023-03-18T09:24:26;19.90;90.40
19680;DHT22;9989;48.962;9.182;2023-03-18T09:26:52;20.10;90.00
19680;DHT22;9989;48.962;9.182;2023-03-18T09:29:17;20.40;87.80
19680;DHT22;9989;48.962;9.182;2023-03-18T09:31:43;20.60;86.00
19680;DHT22;9989;48.962;9.182;2023-03-18T09:34:09;20.80;81.80
19680;DHT22;9989;48.962;9.182;2023-03-18T09:36:38;21.00;80.20
19680;DHT22;9989;48.962;9.182;2023-03-18T09:39:03;21.10;81.30
19680;DHT22;9989;48.962;9.182;2023-03-18T09:44:23;21.60;78.60
19680;DHT22;9989;48.962;9.182;2023-03-18T09:46:55;21.90;73.40
19680;DHT22;9989;48.962;9.182;2023-03-18T09:52:43;22.50;72.10
19680;DHT22;9989;48.962;9.182;2023-03-18T09:58:01;23.00;68.00
19680;DHT22;9989;48.962;9.182;2023-03-18T10:00:34;23.20;67.10
19680;DHT22;9989;48.962;9.182;2023-03-18T10:03:06;23.50;64.20
19680;DHT22;9989;48.962;9.182;2023-03-18T10:05:43;23.80;63.10
19680;DHT22;9989;48.962;9.182;2023-03-18T10:08:27;24.00;58.30
19680;DHT22;9989;48.962;9.182;2023-03-18T10:11:02;24.10;56.60
19680;DHT22;9989;48.962;9.182;2023-03-18T10:13:32;24.30;55.60
19680;DHT22;9989;48.962;9.182;2023-03-18T10:16:03;24.50;55.80
19680;DHT22;9989;48.962;9.182;2023-03-18T10:18:35;24.80;52.60
19680;DHT22;9989;48.962;9.182;2023-03-18T10:21:09;25.00;51.20
19680;DHT22;9989;48.962;9.182;2023-03-18T10:26:28;25.50;51.90
19680;DHT22;9989;48.962;9.182;2023-03-18T10:39:59;27.50;47.30
19680;DHT22;9989;48.962;9.182;2023-03-18T10:42:27;27.90;46.90
19680;DHT22;9989;48.962;9.182;2023-03-18T10:45:01;28.30;46.30
19680;DHT22;9989;48.962;9.182;2023-03-18T10:47:32;28.70;45.00
19680;DHT22;9989;48.962;9.182;2023-03-18T10:50:30;29.00;44.80
19680;DHT22;9989;48.962;9.182;2023-03-18T10:55:38;29.40;42.90
19680;DHT22;9989;48.962;9.182;2023-03-18T10:58:15;29.80;42.10
19680;DHT22;9989;48.962;9.182;2023-03-18T11:00:41;30.20;41.80
19680;DHT22;9989;48.962;9.182;2023-03-18T11:03:17;30.60;41.00
19680;DHT22;9989;48.962;9.182;2023-03-18T11:05:44;31.10;40.30
19680;DHT22;9989;48.962;9.182;2023-03-18T11:08:36;31.50;39.10
19680;DHT22;9989;48.962;9.182;2023-03-18T11:13:38;32.00;38.40
19680;DHT22;9989;48.962;9.182;2023-03-18T11:16:07;32.20;38.30
19680;DHT22;9989;48.962;9.182;2023-03-18T11:18:43;32.50;38.40
19680;DHT22;9989;48.962;9.182;2023-03-18T11:21:12;33.00;38.30
19680;DHT22;9989;48.962;9.182;2023-03-18T11:23:38;33.50;37.70
19680;DHT22;9989;48.962;9.182;2023-03-18T11:26:26;33.90;36.90
19680;DHT22;9989;48.962;9.182;2023-03-18T11:29:08;34.40;35.90
19680;DHT22;9989;48.962;9.182;2023-03-18T11:31:47;34.90;36.00
19680;DHT22;9989;48.962;9.182;2023-03-18T11:34:16;35.40;34.60
19680;DHT22;9989;48.962;9.182;2023-03-18T11:36:51;35.90;34.40
19680;DHT22;9989;48.962;9.182;2023-03-18T11:39:17;36.50;33.50
19680;DHT22;9989;48.962;9.182;2023-03-18T11:41:43;37.10;32.70
19680;DHT22;9989;48.962;9.182;2023-03-18T11:44:16;37.60;32.20
19680;DHT22;9989;48.962;9.182;2023-03-18T11:46:49;38.10;31.30
19680;DHT22;9989;48.962;9.182;2023-03-18T11:49:21;38.50;30.30
19680;DHT22;9989;48.962;9.182;2023-03-18T12:00:39;40.10;28.00
19680;DHT22;9989;48.962;9.182;2023-03-18T12:06:19;40.50;28.80
19680;DHT22;9989;48.962;9.182;2023-03-18T12:16:46;40.40;26.70
19680;DHT22;9989;48.962;9.182;2023-03-18T12:29:54;42.70;25.90
19680;DHT22;9989;48.962;9.182;2023-03-18T12:32:33;43.00;26.00
19680;DHT22;9989;48.962;9.182;2023-03-18T12:35:27;43.30;25.50
19680;DHT22;9989;48.962;9.182;2023-03-18T12:41:52;43.70;25.10
19680;DHT22;9989;48.962;9.182;2023-03-18T12:47:02;43.90;24.70
19680;DHT22;9989;48.962;9.182;2023-03-18T12:49:40;43.90;25.10
19680;DHT22;9989;48.962;9.182;2023-03-18T13:02:55;42.20;25.40
19680;DHT22;9989;48.962;9.182;2023-03-18T13:05:46;41.60;25.50
19680;DHT22;9989;48.962;9.182;2023-03-18T13:11:27;40.80;26.60
19680;DHT22;9989;48.962;9.182;2023-03-18T13:14:02;40.90;26.60
19680;DHT22;9989;48.962;9.182;2023-03-18T13:16:30;41.00;26.50
19680;DHT22;9989;48.962;9.182;2023-03-18T13:18:58;41.10;26.30
19680;DHT22;9989;48.962;9.182;2023-03-18T13:21:30;41.10;25.90
19680;DHT22;9989;48.962;9.182;2023-03-18T13:37:54;39.40;26.00
19680;DHT22;9989;48.962;9.182;2023-03-18T13:40:41;38.80;26.40
19680;DHT22;9989;48.962;9.182;2023-03-18T13:43:15;38.30;27.00
19680;DHT22;9989;48.962;9.182;2023-03-18T13:45:45;37.90;27.20
19680;DHT22;9989;48.962;9.182;2023-03-18T13:48:17;37.60;27.10
19680;DHT22;9989;48.962;9.182;2023-03-18T13:50:46;37.30;27.60
19680;DHT22;9989;48.962;9.182;2023-03-18T13:58:23;35.00;28.20
19680;DHT22;9989;48.962;9.182;2023-03-18T14:04:00;33.80;29.10
19680;DHT22;9989;48.962;9.182;2023-03-18T14:06:44;33.40;29.60
19680;DHT22;9989;48.962;9.182;2023-03-18T14:12:02;33.80;29.90
19680;DHT22;9989;48.962;9.182;2023-03-18T14:18:00;33.70;30.30
19680;DHT22;9989;48.962;9.182;2023-03-18T14:22:45;33.10;30.60
19680;DHT22;9989;48.962;9.182;2023-03-18T14:33:05;32.20;31.30
19680;DHT22;9989;48.962;9.182;2023-03-18T14:38:19;31.40;31.90
19680;DHT22;9989;48.962;9.182;2023-03-18T14:40:48;30.80;32.00
19680;DHT22;9989;48.962;9.182;2023-03-18T14:43:23;30.20;32.80
19680;DHT22;9989;48.962;9.182;2023-03-18T14:45:51;29.70;33.00
19680;DHT22;9989;48.962;9.182;2023-03-18T14:48:26;29.10;33.60
19680;DHT22;9989;48.962;9.182;2023-03-18T14:54:11;28.20;35.40
19680;DHT22;9989;48.962;9.182;2023-03-18T14:59:24;27.40;36.30
19680;DHT22;9989;48.962;9.182;2023-03-18T15:01:50;27.20;37.40
19680;DHT22;9989;48.962;9.182;2023-03-18T15:04:25;27.20;38.00
19680;DHT22;9989;48.962;9.182;2023-03-18T15:06:53;27.30;37.90
19680;DHT22;9989;48.962;9.182;2023-03-18T15:09:26;27.20;36.50
19680;DHT22;9989;48.962;9.182;2023-03-18T15:11:53;27.00;36.50
19680;DHT22;9989;48.962;9.182;2023-03-18T15:14:25;26.60;37.00
19680;DHT22;9989;48.962;9.182;2023-03-18T15:16:57;26.30;37.50
19680;DHT22;9989;48.962;9.182;2023-03-18T15:19:23;25.90;38.10
19680;DHT22;9989;48.962;9.182;2023-03-18T15:21:49;25.50;39.20
19680;DHT22;9989;48.962;9.182;2023-03-18T15:24:19;25.30;39.90
19680;DHT22;9989;48.962;9.182;2023-03-18T15:26:58;25.00;40.70
19680;DHT22;9989;48.962;9.182;2023-03-18T15:32:32;24.50;45.30
19680;DHT22;9989;48.962;9.182;2023-03-18T15:35:16;24.10;47.90
19680;DHT22;9989;48.962;9.182;2023-03-18T15:41:05;23.40;49.60
19680;DHT22;9989;48.962;9.182;2023-03-18T15:46:07;22.70;51.50
19680;DHT22;9989;48.962;9.182;2023-03-18T15:48:41;22.60;52.40
19680;DHT22;9989;48.962;9.182;2023-03-18T15:53:51;22.40;52.50
19680;DHT22;9989;48.962;9.182;2023-03-18T15:56:30;22.40;52.50
19680;DHT22;9989;48.962;9.182;2023-03-18T15:59:22;22.60;52.60
19680;DHT22;9989;48.962;9.182;2023-03-18T16:01:48;22.90;51.90
19680;DHT22;9989;48.962;9.182;2023-03-18T16:04:15;23.40;51.40
19680;DHT22;9989;48.962;9.182;2023-03-18T16:06:43;23.90;51.20
19680;DHT22;9989;48.962;9.182;2023-03-18T16:09:17;24.00;49.20
19680;DHT22;9989;48.962;9.182;2023-03-18T16:11:49;23.90;49.00
19680;DHT22;9989;48.962;9.182;2023-03-18T16:14:18;23.60;49.70
19680;DHT22;9989;48.962;9.182;2023-03-18T16:16:44;23.20;50.40
19680;DHT22;9989;48.962;9.182;2023-03-18T16:19:14;22.90;51.00
19680;DHT22;9989;48.962;9.182;2023-03-18T16:21:40;22.50;51.80
19680;DHT22;9989;48.962;9.182;2023-03-18T16:24:06;22.10;51.70
19680;DHT22;9989;48.962;9.182;2023-03-18T16:26:31;21.80;52.50
19680;DHT22;9989;48.962;9.182;2023-03-18T16:28:57;21.50;53.80
19680;DHT22;9989;48.962;9.182;2023-03-18T16:31:23;21.20;54.60
19680;DHT22;9989;48.962;9.182;2023-03-18T16:33:48;20.90;55.20
19680;DHT22;9989;48.962;9.182;2023-03-18T16:36:23;20.70;55.70
19680;DHT22;9989;48.962;9.182;2023-03-18T16:38:50;20.50;56.30
19680;DHT22;9989;48.962;9.182;2023-03-18T16:41:16;20.30;56.60
19680;DHT22;9989;48.962;9.182;2023-03-18T16:43:42;20.10;56.70
19680;DHT22;9989;48.962;9.182;2023-03-18T16:46:12;20.00;57.10
19680;DHT22;9989;48.962;9.182;2023-03-18T16:48:38;19.80;57.70
19680;DHT22;9989;48.962;9.182;2023-03-18T16:51:03;19.70;58.20
19680;DHT22;9989;48.962;9.182;2023-03-18T16:53:30;19.50;58.60
19680;DHT22;9989;48.962;9.182;2023-03-18T16:56:14;19.40;59.00
19680;DHT22;9989;48.962;9.182;2023-03-18T16:58:39;19.30;59.20
19680;DHT22;9989;48.962;9.182;2023-03-18T17:01:05;19.20;59.40
19680;DHT22;9989;48.962;9.182;2023-03-18T17:03:32;19.10;59.70
19680;DHT22;9989;48.962;9.182;2023-03-18T17:05:58;19.00;60.00
19680;DHT22;9989;48.962;9.182;2023-03-18T17:08:24;18.90;60.10
19680;DHT22;9989;48.962;9.182;2023-03-18T17:10:53;18.80;60.60
19680;DHT22;9989;48.962;9.182;2023-03-18T17:13:22;18.70;61.00
19680;DHT22;9989;48.962;9.182;2023-03-18T17:15:49;18.60;61.50
19680;DHT22;9989;48.962;9.182;2023-03-18T17:18:18;18.50;62.00
19680;DHT22;9989;48.962;9.182;2023-03-18T17:20:45;18.30;62.20
19680;DHT22;9989;48.962;9.182;2023-03-18T17:23:24;18.30;62.80
19680;DHT22;9989;48.962;9.182;2023-03-18T17:26:00;18.20;63.20
19680;DHT22;9989;48.962;9.182;2023-03-18T17:28:33;18.10;63.30
19680;DHT22;9989;48.962;9.182;2023-03-18T17:30:59;18.00;63.60
19680;DHT22;9989;48.962;9.182;2023-03-18T17:33:28;17.90;64.20
19680;DHT22;9989;48.962;9.182;2023-03-18T17:35:55;17.90;64.70
19680;DHT22;9989;48.962;9.182;2023-03-18T17:38:21;17.80;64.80
19680;DHT22;9989;48.962;9.182;2023-03-18T17:40:47;17.80;65.80
19680;DHT22;9989;48.962;9.182;2023-03-18T17:43:18;17.70;66.30
19680;DHT22;9989;48.962;9.182;2023-03-18T17:45:44;17.70;66.90
19680;DHT22;9989;48.962;9.182;2023-03-18T17:48:13;17.60;67.30
19680;DHT22;9989;48.962;9.182;2023-03-18T17:50:40;17.50;67.30
19680;DHT22;9989;48.962;9.182;2023-03-18T17:53:23;17.40;67.70
19680;DHT22;9989;48.962;9.182;2023-03-18T17:55:49;17.40;68.50
19680;DHT22;9989;48.962;9.182;2023-03-18T17:58:16;17.40;69.00
19680;DHT22;9989;48.962;9.182;2023-03-18T18:00:43;17.40;69.60
19680;DHT22;9989;48.962;9.182;2023-03-18T18:05:45;17.20;69.70
19680;DHT22;9989;48.962;9.182;2023-03-18T18:08:16;17.20;70.20
19680;DHT22;9989;48.962;9.182;2023-03-18T18:10:43;17.10;70.60
19680;DHT22;9989;48.962;9.182;2023-03-18T18:13:17;17.00;70.90
19680;DHT22;9989;48.962;9.182;2023-03-18T18:15:45;16.90;71.40
19680;DHT22;9989;48.962;9.182;2023-03-18T18:18:19;16.80;71.80
19680;DHT22;9989;48.962;9.182;2023-03-18T18:20:57;16.70;72.20
19680;DHT22;9989;48.962;9.182;2023-03-18T18:23:31;16.60;72.60
19680;DHT22;9989;48.962;9.182;2023-03-18T18:26:06;16.60;72.90
19680;DHT22;9989;48.962;9.182;2023-03-18T18:28:37;16.50;73.40
19680;DHT22;9989;48.962;9.182;2023-03-18T18:31:06;16.50;73.80
19680;DHT22;9989;48.962;9.182;2023-03-18T18:33:34;16.30;74.10